sensor_id;sensor_type;location;lat;lon;timestamp;P1;durP1;ratioP1;P2;durP2;ratioP2
57335;SDS011;43171;50.994;18.204;2023-06-22T00:06:39;12.30;;;7.90;;
57335;SDS011;43171;50.994;18.204;2023-06-22T00:16:24;9.30;;;8.30;;
57335;SDS011;43171;50.994;18.204;2023-06-22T00:26:06;5.90;;;5.50;;
57335;SDS011;43171;50.994;18.204;2023-06-22T00:35:52;15.30;;;8.40;;
57335;SDS011;43171;50.994;18.204;2023-06-22T00:45:35;12.90;;;10.20;;
57335;SDS011;43171;50.994;18.204;2023-06-22T00:55:23;13.70;;;8.70;;
57335;SDS011;43171;50.994;18.204;2023-06-22T01:05:15;12.30;;;10.60;;
57335;SDS011;43171;50.994;18.204;2023-06-22T01:15:55;14.10;;;10.60;;
57335;SDS011;43171;50.994;18.204;2023-06-22T01:35:56;15.10;;;12.70;;
57335;SDS011;43171;50.994;18.204;2023-06-22T01:45:39;19.20;;;16.90;;
57335;SDS011;43171;50.994;18.204;2023-06-22T01:55:21;25.00;;;18.90;;
57335;SDS011;43171;50.994;18.204;2023-06-22T02:05:09;16.80;;;14.10;;
57335;SDS011;43171;50.994;18.204;2023-06-22T02:15:03;18.40;;;15.50;;
57335;SDS011;43171;50.994;18.204;2023-06-22T02:24:49;25.30;;;15.70;;
57335;SDS011;43171;50.994;18.204;2023-06-22T02:34:32;27.00;;;21.40;;
57335;SDS011;43171;50.994;18.204;2023-06-22T02:44:18;20.40;;;15.10;;
57335;SDS011;43171;50.994;18.204;2023-06-22T02:54:00;18.60;;;13.30;;
57335;SDS011;43171;50.994;18.204;2023-06-22T03:03:49;22.80;;;16.30;;
57335;SDS011;43171;50.994;18.204;2023-06-22T03:13:33;26.00;;;20.40;;
57335;SDS011;43171;50.994;18.204;2023-06-22T03:23:15;21.60;;;17.80;;
57335;SDS011;43171;50.994;18.204;2023-06-22T03:32:57;21.10;;;16.90;;
57335;SDS011;43171;50.994;18.204;2023-06-22T03:42:39;24.60;;;19.70;;
57335;SDS011;43171;50.994;18.204;2023-06-22T03:52:22;21.40;;;17.70;;
57335;SDS011;43171;50.994;18.204;2023-06-22T04:02:05;23.20;;;18.70;;
57335;SDS011;43171;50.994;18.204;2023-06-22T04:11:47;32.90;;;18.80;;
57335;SDS011;43171;50.994;18.204;2023-06-22T04:21:29;38.30;;;29.00;;
57335;SDS011;43171;50.994;18.204;2023-06-22T04:31:19;22.50;;;17.50;;
57335;SDS011;43171;50.994;18.204;2023-06-22T04:41:04;19.40;;;15.30;;
57335;SDS011;43171;50.994;18.204;2023-06-22T04:50:58;23.20;;;18.50;;
57335;SDS011;43171;50.994;18.204;2023-06-22T05:00:46;25.50;;;19.80;;
57335;SDS011;43171;50.994;18.204;2023-06-22T05:10:32;13.40;;;8.70;;
57335;SDS011;43171;50.994;18.204;2023-06-22T05:20:18;17.40;;;13.60;;
57335;SDS011;43171;50.994;18.204;2023-06-22T05:30:09;13.50;;;10.90;;
57335;SDS011;43171;50.994;18.204;2023-06-22T05:39:53;13.60;;;9.90;;
57335;SDS011;43171;50.994;18.204;2023-06-22T05:49:38;10.40;;;7.80;;
57335;SDS011;43171;50.994;18.204;2023-06-22T05:59:20;8.60;;;7.00;;
57335;SDS011;43171;50.994;18.204;2023-06-22T06:09:06;12.10;;;7.40;;
57335;SDS011;43171;50.994;18.204;2023-06-22T06:18:49;7.20;;;6.20;;
57335;SDS011;43171;50.994;18.204;2023-06-22T06:28:33;7.70;;;7.00;;
57335;SDS011;43171;50.994;18.204;2023-06-22T06:38:16;7.20;;;6.50;;
57335;SDS011;43171;50.994;18.204;2023-06-22T06:47:59;7.00;;;5.20;;
57335;SDS011;43171;50.994;18.204;2023-06-22T06:57:42;6.50;;;5.60;;
57335;SDS011;43171;50.994;18.204;2023-06-22T07:07:32;6.90;;;5.60;;
57335;SDS011;43171;50.994;18.204;2023-06-22T07:17:16;7.50;;;5.50;;
57335;SDS011;43171;50.994;18.204;2023-06-22T07:26:58;9.70;;;6.80;;
57335;SDS011;43171;50.994;18.204;2023-06-22T07:36:42;7.80;;;7.00;;
57335;SDS011;43171;50.994;18.204;2023-06-22T07:46:25;6.40;;;5.10;;
57335;SDS011;43171;50.994;18.204;2023-06-22T07:56:11;8.00;;;7.20;;
57335;SDS011;43171;50.994;18.204;2023-06-22T08:05:54;7.80;;;6.10;;
57335;SDS011;43171;50.994;18.204;2023-06-22T08:15:37;7.90;;;6.90;;
57335;SDS011;43171;50.994;18.204;2023-06-22T08:25:20;4.50;;;4.10;;
57335;SDS011;43171;50.994;18.204;2023-06-22T08:35:06;7.60;;;6.60;;
57335;SDS011;43171;50.994;18.204;2023-06-22T08:44:52;6.90;;;6.00;;
57335;SDS011;43171;50.994;18.204;2023-06-22T08:54:38;7.50;;;6.70;;
57335;SDS011;43171;50.994;18.204;2023-06-22T09:04:21;6.80;;;6.10;;
57335;SDS011;43171;50.994;18.204;2023-06-22T09:14:05;6.80;;;6.10;;
57335;SDS011;43171;50.994;18.204;2023-06-22T09:23:48;11.20;;;6.10;;
57335;SDS011;43171;50.994;18.204;2023-06-22T09:33:33;4.80;;;4.30;;
57335;SDS011;43171;50.994;18.204;2023-06-22T09:43:16;4.70;;;3.90;;
57335;SDS011;43171;50.994;18.204;2023-06-22T09:53:00;4.80;;;4.30;;
57335;SDS011;43171;50.994;18.204;2023-06-22T10:02:44;4.90;;;4.40;;
57335;SDS011;43171;50.994;18.204;2023-06-22T10:12:31;4.90;;;4.40;;
57335;SDS011;43171;50.994;18.204;2023-06-22T10:22:14;7.30;;;4.10;;
57335;SDS011;43171;50.994;18.204;2023-06-22T10:32:04;1.40;;;1.30;;
57335;SDS011;43171;50.994;18.204;2023-06-22T10:41:47;3.70;;;3.40;;
57335;SDS011;43171;50.994;18.204;2023-06-22T10:51:29;3.90;;;3.60;;
57335;SDS011;43171;50.994;18.204;2023-06-22T11:01:14;4.30;;;4.00;;
57335;SDS011;43171;50.994;18.204;2023-06-22T11:10:56;6.00;;;4.10;;
57335;SDS011;43171;50.994;18.204;2023-06-22T11:20:39;4.30;;;3.90;;
57335;SDS011;43171;50.994;18.204;2023-06-22T11:30:23;3.80;;;3.50;;
57335;SDS011;43171;50.994;18.204;2023-06-22T11:40:05;4.30;;;3.60;;
57335;SDS011;43171;50.994;18.204;2023-06-22T11:49:50;3.70;;;3.40;;
57335;SDS011;43171;50.994;18.204;2023-06-22T11:59:34;7.90;;;3.40;;
57335;SDS011;43171;50.994;18.204;2023-06-22T12:09:16;3.00;;;2.70;;
57335;SDS011;43171;50.994;18.204;2023-06-22T12:18:58;4.00;;;3.00;;
57335;SDS011;43171;50.994;18.204;2023-06-22T12:28:40;3.40;;;3.10;;
57335;SDS011;43171;50.994;18.204;2023-06-22T12:38:22;3.50;;;3.20;;
57335;SDS011;43171;50.994;18.204;2023-06-22T12:48:07;3.40;;;3.10;;
57335;SDS011;43171;50.994;18.204;2023-06-22T12:57:50;2.10;;;1.50;;
57335;SDS011;43171;50.994;18.204;2023-06-22T13:07:33;3.80;;;3.50;;
57335;SDS011;43171;50.994;18.204;2023-06-22T13:17:16;5.00;;;3.50;;
57335;SDS011;43171;50.994;18.204;2023-06-22T13:27:17;4.30;;;3.90;;
57335;SDS011;43171;50.994;18.204;2023-06-22T13:36:59;4.90;;;4.40;;
57335;SDS011;43171;50.994;18.204;2023-06-22T13:46:41;3.20;;;3.00;;
57335;SDS011;43171;50.994;18.204;2023-06-22T13:56:23;4.60;;;4.20;;
57335;SDS011;43171;50.994;18.204;2023-06-22T14:06:05;7.20;;;4.40;;
57335;SDS011;43171;50.994;18.204;2023-06-22T14:15:48;3.60;;;3.30;;
57335;SDS011;43171;50.994;18.204;2023-06-22T14:25:31;3.40;;;3.10;;
57335;SDS011;43171;50.994;18.204;2023-06-22T14:35:13;3.20;;;3.00;;
57335;SDS011;43171;50.994;18.204;2023-06-22T14:44:56;3.40;;;3.20;;
57335;SDS011;43171;50.994;18.204;2023-06-22T14:54:39;4.10;;;3.70;;
57335;SDS011;43171;50.994;18.204;2023-06-22T15:04:22;5.10;;;4.70;;
57335;SDS011;43171;50.994;18.204;2023-06-22T15:14:05;3.50;;;3.20;;
57335;SDS011;43171;50.994;18.204;2023-06-22T15:23:47;4.20;;;3.90;;
57335;SDS011;43171;50.994;18.204;2023-06-22T15:33:30;1.80;;;1.70;;
57335;SDS011;43171;50.994;18.204;2023-06-22T15:43:14;3.50;;;3.30;;
57335;SDS011;43171;50.994;18.204;2023-06-22T15:52:56;13.20;;;3.80;;
57335;SDS011;43171;50.994;18.204;2023-06-22T15:55:22;5.20;;;4.70;;
57335;SDS011;43171;50.994;18.204;2023-06-22T16:05:06;6.50;;;4.40;;
57335;SDS011;43171;50.994;18.204;2023-06-22T16:14:51;4.30;;;3.60;;
57335;SDS011;43171;50.994;18.204;2023-06-22T16:24:34;4.60;;;4.20;;
57335;SDS011;43171;50.994;18.204;2023-06-22T16:34:15;1.70;;;1.60;;
57335;SDS011;43171;50.994;18.204;2023-06-22T16:43:57;5.30;;;4.90;;
57335;SDS011;43171;50.994;18.204;2023-06-22T16:53:44;3.90;;;3.60;;
57335;SDS011;43171;50.994;18.204;2023-06-22T17:03:28;2.50;;;2.30;;
57335;SDS011;43171;50.994;18.204;2023-06-22T17:13:12;3.20;;;2.90;;
57335;SDS011;43171;50.994;18.204;2023-06-22T17:30:15;1.90;;;1.80;;
57335;SDS011;43171;50.994;18.204;2023-06-22T17:40:15;2.60;;;2.40;;
57335;SDS011;43171;50.994;18.204;2023-06-22T17:50:06;2.30;;;2.10;;
57335;SDS011;43171;50.994;18.204;2023-06-22T17:59:53;2.80;;;2.60;;
57335;SDS011;43171;50.994;18.204;2023-06-22T18:09:40;2.30;;;2.10;;
57335;SDS011;43171;50.994;18.204;2023-06-22T18:19:22;3.20;;;2.60;;
57335;SDS011;43171;50.994;18.204;2023-06-22T18:29:09;3.00;;;2.60;;
57335;SDS011;43171;50.994;18.204;2023-06-22T18:39:16;3.50;;;2.70;;
57335;SDS011;43171;50.994;18.204;2023-06-22T18:49:52;2.30;;;2.10;;
57335;SDS011;43171;50.994;18.204;2023-06-22T18:59:49;2.50;;;1.90;;
57335;SDS011;43171;50.994;18.204;2023-06-22T19:20:39;2.60;;;2.10;;
57335;SDS011;43171;50.994;18.204;2023-06-22T19:30:25;4.20;;;3.20;;
57335;SDS011;43171;50.994;18.204;2023-06-22T19:40:13;6.40;;;3.40;;
57335;SDS011;43171;50.994;18.204;2023-06-22T19:50:00;2.60;;;2.40;;
57335;SDS011;43171;50.994;18.204;2023-06-22T20:00:02;3.40;;;3.10;;
57335;SDS011;43171;50.994;18.204;2023-06-22T20:10:08;5.10;;;3.60;;
57335;SDS011;43171;50.994;18.204;2023-06-22T20:20:19;13.50;;;3.90;;
57335;SDS011;43171;50.994;18.204;2023-06-22T20:30:15;5.90;;;3.30;;
57335;SDS011;43171;50.994;18.204;2023-06-22T20:40:07;4.00;;;3.10;;
57335;SDS011;43171;50.994;18.204;2023-06-22T20:49:51;6.90;;;3.60;;
57335;SDS011;43171;50.994;18.204;2023-06-22T20:59:34;0.70;;;0.50;;
57335;SDS011;43171;50.994;18.204;2023-06-22T21:09:17;2.50;;;2.30;;
57335;SDS011;43171;50.994;18.204;2023-06-22T21:18:59;2.50;;;2.10;;
57335;SDS011;43171;50.994;18.204;2023-06-22T21:35:58;3.30;;;2.70;;
57335;SDS011;43171;50.994;18.204;2023-06-22T21:45:40;3.80;;;3.40;;
57335;SDS011;43171;50.994;18.204;2023-06-22T21:55:23;10.30;;;4.10;;
57335;SDS011;43171;50.994;18.204;2023-06-22T22:05:06;5.40;;;4.50;;
57335;SDS011;43171;50.994;18.204;2023-06-22T22:14:49;3.50;;;3.20;;
57335;SDS011;43171;50.994;18.204;2023-06-22T22:24:31;4.90;;;3.40;;
57335;SDS011;43171;50.994;18.204;2023-06-22T22:34:14;4.60;;;3.70;;
57335;SDS011;43171;50.994;18.204;2023-06-22T22:43:58;4.70;;;4.30;;
57335;SDS011;43171;50.994;18.204;2023-06-22T22:53:40;3.50;;;3.20;;
57335;SDS011;43171;50.994;18.204;2023-06-22T23:03:26;4.50;;;2.50;;
57335;SDS011;43171;50.994;18.204;2023-06-22T23:13:08;2.70;;;2.50;;
57335;SDS011;43171;50.994;18.204;2023-06-22T23:22:54;2.30;;;2.10;;
57335;SDS011;43171;50.994;18.204;2023-06-22T23:32:42;5.20;;;3.10;;
57335;SDS011;43171;50.994;18.204;2023-06-22T23:42:45;8.10;;;2.60;;
57335;SDS011;43171;50.994;18.204;2023-06-22T23:52:37;5.50;;;3.60;;
